Time;durP1;ratioP1;P1;durP2;ratioP2;P2;SDS_P1;SDS_P2;PMS_P1;PMS_P2;Temp;Humidity;BMP_temperature;BMP_pressure;BME280_temperature;BME280_humidity;BME280_pressure;Samples;Min_cycle;Max_cycle;Signal;HPM_P1;HPM_P2
2022/09/11 00:00:27;;;;;;;28.73;20.77;;;13.90;99.90;;;;;;4950158;29;20051;-89
2022/09/11 00:02:53;;;;;;;31.63;22.10;;;13.90;99.90;;;;;;4931018;29;20043;-89
2022/09/11 00:05:18;;;;;;;31.00;20.85;;;13.90;99.90;;;;;;4950613;28;20054;-89
2022/09/11 00:07:46;;;;;;;29.63;20.80;;;13.90;99.90;;;;;;4948571;29;20416;-90
2022/09/11 00:10:11;;;;;;;33.83;22.13;;;13.90;99.90;;;;;;4949452;29;20055;-89
2022/09/11 00:12:37;;;;;;;34.28;21.52;;;14.00;99.90;;;;;;4950126;29;20055;-90
2022/09/11 00:15:03;;;;;;;33.60;21.95;;;13.90;99.90;;;;;;4946823;29;20047;-89
2022/09/11 00:17:28;;;;;;;35.97;24.25;;;13.90;99.90;;;;;;4949556;29;20086;-90
2022/09/11 00:19:54;;;;;;;36.17;23.08;;;13.90;99.90;;;;;;4950184;29;20507;-88
2022/09/11 00:22:19;;;;;;;35.55;22.85;;;13.70;99.90;;;;;;4945896;29;20110;-89
2022/09/11 00:24:46;;;;;;;28.45;20.55;;;13.80;99.90;;;;;;4946379;29;20074;-89
2022/09/11 00:27:11;;;;;;;29.60;20.65;;;13.80;99.90;;;;;;4949196;29;20039;-90
2022/09/11 00:29:37;;;;;;;29.77;20.13;;;13.70;99.90;;;;;;4914601;29;20094;-88
2022/09/11 00:32:03;;;;;;;33.38;21.70;;;13.90;99.90;;;;;;4945387;29;20047;-89
2022/09/11 00:34:28;;;;;;;34.20;22.98;;;13.70;99.90;;;;;;4949006;29;20695;-89
2022/09/11 00:36:54;;;;;;;31.90;21.10;;;13.70;99.90;;;;;;4949337;29;20058;-89
2022/09/11 00:39:20;;;;;;;33.67;22.58;;;13.70;99.90;;;;;;4932349;29;20038;-89
2022/09/11 00:41:46;;;;;;;34.65;22.88;;;13.70;99.90;;;;;;4932670;29;20051;-90
2022/09/11 00:44:17;;;;;;;33.30;23.55;;;13.60;99.90;;;;;;4949648;29;20054;-88
2022/09/11 00:46:45;;;;;;;39.78;26.48;;;13.70;99.90;;;;;;4932295;29;20475;-89
2022/09/11 00:49:15;;;;;;;28.35;19.67;;;13.70;99.90;;;;;;4948529;29;20145;-89
2022/09/11 00:51:43;;;;;;;39.35;25.85;;;13.80;99.90;;;;;;4947850;28;20124;-90
2022/09/11 00:54:11;;;;;;;35.38;23.67;;;13.80;99.90;;;;;;4946383;29;20050;-88
2022/09/11 00:56:40;;;;;;;25.90;19.30;;;13.80;99.90;;;;;;4950224;29;20498;-89
2022/09/11 00:59:06;;;;;;;37.17;24.23;;;13.90;99.90;;;;;;4949287;29;20036;-88
2022/09/11 01:01:32;;;;;;;31.63;21.67;;;13.90;99.90;;;;;;4948503;29;20042;-89
2022/09/11 01:04:02;;;;;;;36.13;23.52;;;13.90;99.90;;;;;;4952295;28;20376;-89
2022/09/11 01:06:28;;;;;;;35.17;23.48;;;14.00;99.90;;;;;;4949931;29;20051;-89
2022/09/11 01:08:53;;;;;;;37.55;27.00;;;14.00;99.90;;;;;;4949148;29;20043;-89
2022/09/11 01:11:25;;;;;;;27.02;20.40;;;14.10;99.90;;;;;;4949794;29;20031;-89
2022/09/11 01:14:17;;;;;;;33.72;23.50;;;14.00;99.90;;;;;;4948770;29;20063;-89
2022/09/11 01:16:52;;;;;;;28.90;20.55;;;14.00;99.90;;;;;;4947745;29;20047;-88
2022/09/11 01:19:40;;;;;;;36.63;25.20;;;14.20;99.90;;;;;;4932049;29;20047;-89
2022/09/11 01:22:40;;;;;;;33.65;22.95;;;14.00;99.90;;;;;;4931905;29;20063;-89
2022/09/11 01:25:26;;;;;;;29.58;19.17;;;14.00;99.90;;;;;;4931573;29;20035;-88
2022/09/11 01:27:54;;;;;;;30.23;21.45;;;14.00;99.90;;;;;;4943639;29;20051;-87
2022/09/11 01:30:20;;;;;;;29.38;21.73;;;13.90;99.90;;;;;;4948768;29;20102;-88
2022/09/11 01:33:06;;;;;;;31.80;22.40;;;13.90;99.90;;;;;;4949104;29;20057;-89
2022/09/11 01:35:45;;;;;;;34.72;24.63;;;13.90;99.90;;;;;;4946174;29;20047;-89
2022/09/11 01:38:14;;;;;;;38.00;23.33;;;13.90;99.90;;;;;;4930895;29;20074;-89
2022/09/11 01:41:06;;;;;;;33.33;23.05;;;13.80;99.90;;;;;;4932167;29;20094;-88
2022/09/11 01:43:37;;;;;;;33.15;23.17;;;13.80;99.90;;;;;;4950269;29;20043;-89
2022/09/11 01:46:06;;;;;;;35.63;24.63;;;13.80;99.90;;;;;;4935135;29;20039;-88
2022/09/11 01:48:40;;;;;;;28.40;19.80;;;13.70;99.90;;;;;;4952368;29;20053;-88
2022/09/11 01:51:08;;;;;;;34.47;23.77;;;13.70;99.90;;;;;;4934932;29;20057;-88
2022/09/11 01:53:37;;;;;;;31.15;22.05;;;13.70;99.90;;;;;;4951293;29;20440;-88
2022/09/11 01:56:12;;;;;;;31.73;22.98;;;13.70;99.90;;;;;;4928001;29;20087;-89
2022/09/11 01:58:39;;;;;;;;;;;13.60;99.90;;;;;;4933983;29;20048;-88
2022/09/11 02:01:08;;;;;;;35.03;23.35;;;13.60;99.90;;;;;;4950512;29;19982;-88
2022/09/11 02:03:39;;;;;;;31.25;21.10;;;13.60;99.90;;;;;;4945980;29;20046;-88
2022/09/11 02:06:10;;;;;;;32.58;23.15;;;13.60;99.90;;;;;;4947945;29;20460;-89
2022/09/11 02:08:45;;;;;;;35.70;24.38;;;13.60;99.90;;;;;;4918220;29;20043;-88
2022/09/11 02:11:13;;;;;;;36.35;24.42;;;13.60;99.90;;;;;;4947409;29;20050;-89
2022/09/11 02:13:55;;;;;;;28.55;19.90;;;13.60;99.90;;;;;;4952012;29;20087;-88
2022/09/11 02:16:30;;;;;;;36.08;23.85;;;13.50;99.90;;;;;;4947223;29;20126;-88
2022/09/11 02:18:58;;;;;;;;;;;13.50;99.90;;;;;;4951678;29;20141;-88
2022/09/11 02:21:24;;;;;;;30.90;21.95;;;13.50;99.90;;;;;;4947655;29;20378;-88
2022/09/11 02:23:50;;;;;;;32.20;23.25;;;13.50;99.90;;;;;;4951727;29;20054;-88
2022/09/11 02:26:18;;;;;;;31.08;21.25;;;13.50;99.90;;;;;;4948710;29;20043;-89
2022/09/11 02:28:44;;;;;;;35.22;23.73;;;13.50;99.90;;;;;;4951725;29;20055;-88
2022/09/11 02:31:10;;;;;;;35.50;23.10;;;13.50;99.90;;;;;;4934903;29;20043;-88
2022/09/11 02:33:36;;;;;;;30.52;21.65;;;13.50;99.90;;;;;;4951850;29;20384;-88
2022/09/11 02:36:37;;;;;;;37.80;24.85;;;13.50;99.90;;;;;;4946835;29;20048;-88
2022/09/11 02:39:36;;;;;;;32.75;22.50;;;13.50;99.90;;;;;;4915251;29;20182;-88
2022/09/11 02:42:35;;;;;;;31.33;21.92;;;13.50;99.90;;;;;;4933424;29;20051;-87
2022/09/11 02:45:27;;;;;;;32.17;21.05;;;13.40;99.90;;;;;;4945818;29;20574;-88
2022/09/11 02:48:29;;;;;;;31.50;21.40;;;13.40;99.90;;;;;;4950073;29;20051;-88
2022/09/11 02:51:18;;;;;;;35.33;22.88;;;13.40;99.90;;;;;;4948781;28;20039;-88
2022/09/11 02:54:21;;;;;;;33.95;22.52;;;13.40;99.90;;;;;;4950850;28;20150;-88
2022/09/11 02:57:19;;;;;;;33.22;22.70;;;13.40;99.90;;;;;;4931005;29;20069;-88
2022/09/11 02:59:52;;;;;;;33.53;22.75;;;13.40;99.90;;;;;;4923091;29;20579;-88
2022/09/11 03:02:18;;;;;;;31.40;21.27;;;13.40;99.90;;;;;;4932655;29;20062;-88
2022/09/11 03:04:44;;;;;;;30.55;22.13;;;13.40;99.90;;;;;;4930330;29;20055;-88
2022/09/11 03:07:10;;;;;;;31.38;21.20;;;13.40;99.90;;;;;;4950545;29;20058;-87
2022/09/11 03:09:35;;;;;;;30.08;21.30;;;13.30;99.90;;;;;;4944771;29;20491;-88
2022/09/11 03:12:03;;;;;;;29.70;20.45;;;13.40;99.90;;;;;;4948691;29;20055;-88
2022/09/11 03:14:28;;;;;;;27.25;19.95;;;13.30;99.90;;;;;;4950585;29;20051;-87
2022/09/11 03:16:55;;;;;;;29.90;19.75;;;13.30;99.90;;;;;;4950918;29;20059;-88
2022/09/11 03:19:21;;;;;;;27.88;19.20;;;13.20;99.90;;;;;;4950555;29;20098;-88
2022/09/11 03:21:47;;;;;;;27.80;19.23;;;13.20;99.90;;;;;;4950918;29;20047;-88
2022/09/11 03:24:13;;;;;;;25.13;17.70;;;13.20;99.90;;;;;;4950838;29;20468;-88
2022/09/11 03:26:38;;;;;;;24.10;17.48;;;13.20;99.90;;;;;;4951436;29;20047;-88
2022/09/11 03:29:04;;;;;;;25.20;18.38;;;13.10;99.90;;;;;;4950261;29;20440;-87
2022/09/11 03:31:30;;;;;;;27.67;17.85;;;13.10;99.90;;;;;;4933025;29;20063;-87
2022/09/11 03:33:56;;;;;;;26.02;16.85;;;13.10;99.90;;;;;;4948035;29;20039;-87
2022/09/11 03:36:22;;;;;;;25.80;18.10;;;13.10;99.90;;;;;;4950593;29;20043;-88
2022/09/11 03:38:48;;;;;;;25.75;18.73;;;13.10;99.90;;;;;;4933522;29;20039;-87
2022/09/11 03:41:14;;;;;;;25.13;18.60;;;13.00;99.90;;;;;;4951414;29;20507;-88
2022/09/11 03:43:40;;;;;;;23.75;17.83;;;13.00;99.90;;;;;;4949875;28;20046;-88
2022/09/11 03:46:05;;;;;;;24.35;16.02;;;13.10;99.90;;;;;;4951189;29;20039;-87
2022/09/11 03:48:32;;;;;;;22.48;16.98;;;13.10;99.90;;;;;;4946996;29;20039;-88
2022/09/11 03:50:58;;;;;;;26.92;16.45;;;13.10;99.90;;;;;;4950427;29;20047;-87
2022/09/11 03:53:25;;;;;;;20.13;15.73;;;13.00;99.90;;;;;;4947767;29;20054;-87
2022/09/11 03:55:51;;;;;;;22.33;16.52;;;13.00;99.90;;;;;;4950801;29;20130;-88
2022/09/11 03:58:19;;;;;;;20.77;14.80;;;13.00;99.90;;;;;;4950483;29;20192;-87
2022/09/11 04:00:46;;;;;;;19.17;14.07;;;13.00;99.90;;;;;;4949919;29;20062;-88
2022/09/11 04:03:14;;;;;;;23.35;16.02;;;13.00;99.90;;;;;;4949368;28;20046;-87
2022/09/11 04:05:42;;;;;;;21.90;15.40;;;13.00;99.90;;;;;;4948784;29;20062;-87
2022/09/11 04:08:11;;;;;;;20.17;15.27;;;12.90;99.90;;;;;;4932721;29;20039;-87
2022/09/11 04:10:37;;;;;;;22.13;16.00;;;12.90;99.90;;;;;;4933154;29;20110;-87
2022/09/11 04:13:02;;;;;;;20.60;14.23;;;12.90;99.90;;;;;;4932611;29;20047;-87
2022/09/11 04:15:28;;;;;;;20.35;14.57;;;12.90;99.90;;;;;;4950711;29;20126;-87
2022/09/11 04:17:54;;;;;;;21.30;14.75;;;12.80;99.90;;;;;;4949475;28;20122;-88
2022/09/11 04:20:19;;;;;;;18.58;14.73;;;13.00;99.90;;;;;;4950060;29;20054;-87
2022/09/11 04:22:45;;;;;;;20.25;14.52;;;12.80;99.90;;;;;;4948861;29;20047;-87
2022/09/11 04:25:11;;;;;;;14.75;11.30;;;12.80;99.90;;;;;;4950225;29;20119;-87
2022/09/11 04:27:36;;;;;;;16.52;12.60;;;12.80;99.90;;;;;;4931704;29;20061;-87
2022/09/11 04:30:02;;;;;;;16.92;11.95;;;12.80;99.90;;;;;;4932294;29;20051;-87
2022/09/11 04:32:28;;;;;;;18.55;13.35;;;12.80;99.90;;;;;;4930305;29;20047;-87
2022/09/11 04:34:54;;;;;;;23.30;14.07;;;12.90;99.90;;;;;;4948733;29;20051;-88
2022/09/11 04:37:19;;;;;;;16.80;12.52;;;12.80;99.90;;;;;;4930781;29;20054;-87
2022/09/11 04:39:46;;;;;;;18.45;13.10;;;12.70;99.90;;;;;;4949628;29;20089;-87
2022/09/11 04:42:11;;;;;;;18.40;13.68;;;12.70;99.90;;;;;;4947234;29;20210;-88
2022/09/11 04:44:38;;;;;;;19.02;14.40;;;12.70;99.90;;;;;;4947154;29;20130;-87
2022/09/11 04:47:03;;;;;;;19.33;13.23;;;12.70;99.90;;;;;;4930660;29;20459;-87
2022/09/11 04:49:29;;;;;;;20.20;14.20;;;12.70;99.90;;;;;;4949550;29;20087;-87
2022/09/11 04:51:56;;;;;;;23.08;14.18;;;12.70;99.90;;;;;;4930058;29;20503;-87
2022/09/11 04:54:22;;;;;;;19.30;13.90;;;12.70;99.90;;;;;;4930920;29;20547;-88
2022/09/11 04:56:48;;;;;;;19.77;14.27;;;12.70;99.90;;;;;;4949268;29;20066;-87
2022/09/11 04:59:16;;;;;;;19.90;13.85;;;13.20;99.90;;;;;;4948322;29;20102;-87
2022/09/11 05:01:43;;;;;;;20.02;14.13;;;12.70;99.90;;;;;;4948910;29;20059;-87
2022/09/11 05:04:12;;;;;;;20.42;13.57;;;12.70;99.90;;;;;;4930868;29;20126;-87
2022/09/11 05:06:39;;;;;;;17.45;13.00;;;12.70;99.90;;;;;;4948752;29;20526;-86
2022/09/11 05:09:07;;;;;;;25.35;16.95;;;12.70;99.90;;;;;;4948825;29;20039;-86
2022/09/11 05:11:33;;;;;;;19.00;14.63;;;12.70;99.90;;;;;;4931156;29;20055;-87
2022/09/11 05:13:59;;;;;;;20.17;14.75;;;12.70;99.90;;;;;;4948820;29;20051;-86
2022/09/11 05:16:27;;;;;;;20.30;13.38;;;12.80;99.90;;;;;;4943824;28;20047;-87
2022/09/11 05:18:54;;;;;;;19.20;11.88;;;12.80;99.90;;;;;;4948441;29;20031;-87
2022/09/11 05:21:24;;;;;;;20.00;13.73;;;12.80;99.90;;;;;;4948448;29;20054;-87
2022/09/11 05:23:52;;;;;;;19.05;12.75;;;12.80;99.90;;;;;;4947492;29;20496;-87
2022/09/11 05:26:24;;;;;;;18.50;13.23;;;12.70;99.90;;;;;;4931104;29;20051;-87
2022/09/11 05:28:58;;;;;;;21.67;13.52;;;12.70;99.90;;;;;;4924698;29;20426;-88
2022/09/11 05:31:24;;;;;;;18.77;14.30;;;12.70;99.90;;;;;;4931659;29;20134;-87
2022/09/11 05:33:52;;;;;;;17.63;12.70;;;12.70;99.90;;;;;;4948204;29;20047;-86
2022/09/11 05:36:17;;;;;;;15.93;11.60;;;12.70;99.90;;;;;;4946316;29;20056;-87
2022/09/11 05:38:44;;;;;;;15.35;11.63;;;13.00;99.90;;;;;;4947364;29;20044;-87
2022/09/11 05:41:11;;;;;;;16.27;12.00;;;12.70;99.90;;;;;;4948907;28;20040;-87
2022/09/11 05:43:38;;;;;;;20.70;13.15;;;12.70;99.90;;;;;;4931829;29;20047;-87
2022/09/11 05:46:05;;;;;;;17.10;13.35;;;12.70;99.90;;;;;;4928833;29;20380;-87
2022/09/11 05:48:32;;;;;;;20.00;13.10;;;12.70;99.90;;;;;;4945383;29;20150;-86
2022/09/11 05:51:08;;;;;;;18.52;13.77;;;12.70;99.90;;;;;;4943195;29;20076;-87
2022/09/11 05:53:34;;;;;;;19.50;12.63;;;12.70;99.90;;;;;;4943829;29;20261;-86
2022/09/11 05:56:17;;;;;;;16.75;13.70;;;12.70;99.90;;;;;;4947264;29;20472;-86
2022/09/11 05:58:45;;;;;;;17.80;13.20;;;12.70;99.90;;;;;;4943839;29;20039;-85
2022/09/11 06:01:22;;;;;;;16.42;12.93;;;12.70;99.90;;;;;;4929880;29;20492;-84
2022/09/11 06:03:48;;;;;;;19.67;15.07;;;12.80;99.90;;;;;;4942719;28;20045;-85
2022/09/11 06:06:14;;;;;;;18.17;14.82;;;12.80;99.90;;;;;;4945638;29;20043;-84
2022/09/11 06:08:42;;;;;;;18.75;15.02;;;12.80;99.90;;;;;;4928901;29;20039;-84
2022/09/11 06:11:09;;;;;;;18.98;14.82;;;12.90;99.90;;;;;;4946985;29;20054;-85
2022/09/11 06:13:40;;;;;;;18.20;14.27;;;12.90;99.90;;;;;;4944804;29;20040;-84
2022/09/11 06:16:10;;;;;;;17.77;14.05;;;12.90;99.90;;;;;;4928355;29;20043;-84
2022/09/11 06:18:36;;;;;;;20.05;16.25;;;12.90;99.90;;;;;;4947586;29;20388;-84
2022/09/11 06:21:08;;;;;;;23.83;15.93;;;13.00;99.90;;;;;;4933763;29;20047;-85
2022/09/11 06:23:38;;;;;;;20.45;16.48;;;13.10;99.90;;;;;;4945755;29;20043;-84
2022/09/11 06:26:07;;;;;;;23.20;16.67;;;13.00;99.90;;;;;;4930867;29;20113;-85
2022/09/11 06:28:35;;;;;;;22.58;16.70;;;13.10;99.90;;;;;;4950266;29;20114;-84
2022/09/11 06:31:01;;;;;;;18.48;14.95;;;13.10;99.90;;;;;;4951125;29;20050;-84
2022/09/11 06:33:35;;;;;;;23.60;16.67;;;13.20;99.90;;;;;;4933328;29;20515;-84
2022/09/11 06:36:03;;;;;;;22.38;18.50;;;13.20;99.90;;;;;;4950817;29;20404;-85
2022/09/11 06:38:30;;;;;;;20.63;17.50;;;13.30;99.90;;;;;;4949187;28;20036;-84
2022/09/11 06:40:57;;;;;;;22.70;18.00;;;13.30;99.90;;;;;;4948522;29;20479;-84
2022/09/11 06:43:22;;;;;;;22.75;19.17;;;13.40;99.90;;;;;;4946559;28;20046;-84
2022/09/11 06:45:48;;;;;;;20.33;15.23;;;13.40;99.90;;;;;;4950743;29;20050;-85
2022/09/11 06:48:15;;;;;;;19.92;16.50;;;13.50;99.90;;;;;;4951845;28;20035;-85
2022/09/11 06:50:41;;;;;;;22.08;16.65;;;13.50;99.90;;;;;;4950525;28;20110;-84
2022/09/11 06:53:08;;;;;;;19.70;14.55;;;13.60;99.90;;;;;;4947254;28;20139;-85
2022/09/11 06:55:33;;;;;;;22.85;17.08;;;13.60;99.90;;;;;;4932337;29;20057;-85
2022/09/11 06:57:59;;;;;;;19.10;15.80;;;13.60;99.90;;;;;;4951092;29;20031;-84
2022/09/11 07:00:25;;;;;;;20.00;16.08;;;13.70;99.90;;;;;;4951174;29;20043;-84
2022/09/11 07:02:55;;;;;;;23.83;18.98;;;13.70;99.90;;;;;;4949321;29;20047;-84
2022/09/11 07:05:21;;;;;;;22.48;18.38;;;13.80;99.90;;;;;;4950888;29;20039;-83
2022/09/11 07:07:49;;;;;;;23.88;18.33;;;13.80;99.90;;;;;;4933114;29;20075;-84
2022/09/11 07:10:15;;;;;;;24.02;18.23;;;13.90;99.90;;;;;;4931678;29;20369;-84
2022/09/11 07:12:40;;;;;;;21.70;17.08;;;14.00;99.90;;;;;;4949489;29;20035;-85
2022/09/11 07:15:07;;;;;;;25.05;18.50;;;14.20;99.90;;;;;;4932020;29;20510;-85
2022/09/11 07:17:33;;;;;;;28.38;19.40;;;14.10;99.90;;;;;;4949502;29;20519;-85
2022/09/11 07:19:59;;;;;;;24.98;18.88;;;14.20;99.90;;;;;;4949757;29;20141;-85
2022/09/11 07:22:25;;;;;;;25.13;18.40;;;14.20;99.90;;;;;;4933931;29;20130;-85
2022/09/11 07:24:54;;;;;;;27.80;21.15;;;14.30;99.90;;;;;;4950049;29;20057;-84
2022/09/11 07:27:20;;;;;;;26.27;19.20;;;14.40;99.90;;;;;;4926193;29;20048;-86
2022/09/11 07:29:46;;;;;;;26.67;20.08;;;14.50;99.90;;;;;;4952636;28;20053;-85
2022/09/11 07:32:11;;;;;;;26.73;19.02;;;14.50;99.90;;;;;;4949426;29;20039;-85
2022/09/11 07:34:37;;;;;;;27.20;19.50;;;14.50;99.90;;;;;;4950085;29;20118;-85
2022/09/11 07:37:03;;;;;;;26.75;19.40;;;14.60;99.90;;;;;;4932835;29;20510;-85
2022/09/11 07:39:28;;;;;;;26.30;19.40;;;14.70;99.90;;;;;;4947988;28;20047;-86
2022/09/11 07:41:54;;;;;;;27.48;18.67;;;14.80;99.90;;;;;;4950081;29;20051;-87
2022/09/11 07:44:21;;;;;;;24.95;17.55;;;14.80;99.90;;;;;;4932813;29;20118;-88
2022/09/11 07:46:47;;;;;;;27.52;18.35;;;14.80;99.90;;;;;;4921695;29;20047;-91
2022/09/11 07:49:14;;;;;;;25.15;18.48;;;14.90;99.90;;;;;;4951570;28;20145;-91
2022/09/11 07:51:39;;;;;;;23.60;17.35;;;14.90;99.90;;;;;;4953604;28;20107;-92
2022/09/11 07:54:05;;;;;;;27.20;17.58;;;15.00;99.90;;;;;;4947421;29;20043;-92
2022/09/11 07:56:35;;;;;;;25.90;17.83;;;15.10;99.90;;;;;;4950774;28;20042;-93
2022/09/11 07:59:01;;;;;;;28.60;18.27;;;15.20;99.90;;;;;;4934614;29;20054;-92
2022/09/11 08:01:29;;;;;;;26.13;16.80;;;15.20;99.90;;;;;;4933008;29;20490;-90
2022/09/11 08:03:57;;;;;;;22.08;17.15;;;15.20;99.90;;;;;;4950596;29;20531;-91
2022/09/11 08:06:24;;;;;;;21.90;16.17;;;15.30;99.90;;;;;;4948974;29;20051;-90
2022/09/11 08:08:54;;;;;;;22.15;16.88;;;15.40;99.90;;;;;;4931498;29;20059;-91
2022/09/11 08:11:21;;;;;;;26.35;16.98;;;15.40;99.90;;;;;;4933047;29;20127;-91
2022/09/11 08:13:51;;;;;;;21.27;16.10;;;15.50;99.90;;;;;;4950391;29;20395;-90
2022/09/11 08:16:18;;;;;;;26.75;16.65;;;15.60;99.90;;;;;;4917183;29;20058;-89
2022/09/11 08:18:44;;;;;;;19.88;15.98;;;15.70;99.90;;;;;;4944816;29;20043;-90
2022/09/11 08:21:10;;;;;;;27.33;15.55;;;15.80;99.90;;;;;;4932563;29;20074;-90
2022/09/11 08:23:41;;;;;;;21.17;14.05;;;15.80;99.90;;;;;;4949207;29;20035;-91
2022/09/11 08:26:07;;;;;;;16.92;12.05;;;15.90;99.90;;;;;;4950445;29;20035;-90
2022/09/11 08:28:34;;;;;;;13.88;10.25;;;16.00;99.90;;;;;;4932664;29;20095;-91
2022/09/11 08:31:00;;;;;;;14.07;10.15;;;16.10;99.90;;;;;;4950268;29;20050;-90
2022/09/11 08:33:27;;;;;;;14.45;10.05;;;16.20;99.90;;;;;;4949973;29;20043;-91
2022/09/11 08:35:53;;;;;;;14.23;9.32;;;16.30;99.90;;;;;;4947968;29;20039;-90
2022/09/11 08:38:19;;;;;;;14.45;8.20;;;16.30;99.90;;;;;;4951450;29;20047;-89
2022/09/11 08:40:45;;;;;;;11.25;6.68;;;16.40;99.90;;;;;;4938920;29;20488;-88
2022/09/11 08:43:37;;;;;;;12.43;7.25;;;16.50;99.90;;;;;;4953568;29;20102;-86
2022/09/11 08:46:05;;;;;;;12.38;7.07;;;16.60;99.90;;;;;;4944670;29;20436;-87
2022/09/11 08:48:44;;;;;;;11.68;7.85;;;16.60;99.90;;;;;;4936124;29;20940;-88
2022/09/11 08:51:15;;;;;;;12.30;7.68;;;16.70;99.90;;;;;;4930094;29;20114;-88
2022/09/11 08:53:41;;;;;;;12.70;7.30;;;16.70;99.90;;;;;;4951097;29;20047;-87
2022/09/11 08:56:17;;;;;;;9.00;5.60;;;16.80;99.90;;;;;;4963273;28;20043;-89
2022/09/11 08:59:14;;;;;;;10.43;5.10;;;16.80;99.90;;;;;;4944286;29;20075;-92
2022/09/11 09:01:49;;;;;;;9.07;4.55;;;17.00;99.90;;;;;;4955845;29;20121;-91
2022/09/11 09:04:15;;;;;;;;;;;17.10;99.90;;;;;;4961061;29;20042;-90
2022/09/11 09:06:52;;;;;;;6.20;3.78;;;17.40;99.90;;;;;;4959392;29;19930;-92
2022/09/11 09:09:55;;;;;;;6.88;3.30;;;17.60;99.90;;;;;;4959772;29;20114;-90
2022/09/11 09:12:39;;;;;;;5.13;3.00;;;17.90;99.90;;;;;;4940553;29;20050;-92
2022/09/11 09:15:51;;;;;;;9.48;3.28;;;18.20;99.90;;;;;;4956693;29;20055;-94
2022/09/11 09:18:31;;;;;;;5.00;2.70;;;18.40;99.90;;;;;;4880468;29;20062;-92
2022/09/11 09:21:05;;;;;;;4.65;2.33;;;18.40;99.90;;;;;;4957356;29;20035;-94
2022/09/11 09:23:40;;;;;;;5.25;2.30;;;18.60;99.90;;;;;;4925935;29;20047;-93
2022/09/11 09:26:16;;;;;;;6.65;2.33;;;18.80;99.90;;;;;;4958829;29;20036;-92
2022/09/11 09:28:46;;;;;;;5.68;1.92;;;18.80;99.90;;;;;;4960757;29;20058;-93
2022/09/11 09:31:16;;;;;;;6.00;1.77;;;18.80;99.90;;;;;;4940073;29;20516;-93
2022/09/11 09:33:48;;;;;;;4.95;1.58;;;18.90;99.90;;;;;;4951664;29;20257;-94
2022/09/11 09:36:22;;;;;;;5.25;1.80;;;18.90;99.90;;;;;;4955839;29;20047;-93
2022/09/11 09:38:48;;;;;;;6.45;1.90;;;19.00;99.90;;;;;;4957279;29;20497;-94
2022/09/11 09:42:00;;;;;;;4.90;2.30;;;19.00;99.90;;;;;;4929794;29;20066;-95
2022/09/11 09:44:44;;;;;;;3.58;1.95;;;19.20;99.90;;;;;;4958103;29;20051;-96
2022/09/11 09:49:48;;;;;;;5.80;1.95;;;19.90;99.90;;;;;;5084279;23;20050;-95
2022/09/11 09:52:19;;;;;;;3.97;1.50;;;19.80;99.90;;;;;;5008072;28;20054;-96
2022/09/11 09:54:55;;;;;;;5.43;1.40;;;19.80;99.90;;;;;;5007534;28;20106;-96
2022/09/11 09:57:25;;;;;;;7.18;1.58;;;19.30;99.90;;;;;;5009735;28;20038;-94
2022/09/11 10:00:00;;;;;;;4.03;1.70;;;19.40;99.90;;;;;;5000434;28;20042;-95
2022/09/11 10:02:48;;;;;;;2.70;1.50;;;19.10;99.90;;;;;;4986619;28;20138;-95
2022/09/11 10:05:37;;;;;;;6.10;1.30;;;19.60;99.90;;;;;;5004803;28;20049;-94
2022/09/11 10:08:06;;;;;;;3.63;1.40;;;19.50;99.90;;;;;;5008260;28;20126;-93
2022/09/11 10:10:37;;;;;;;3.55;1.80;;;19.60;99.90;;;;;;4968396;28;20109;-91
2022/09/11 10:13:26;;;;;;;6.03;1.48;;;19.80;99.90;;;;;;4997287;28;20050;-94
2022/09/11 10:15:55;;;;;;;6.25;1.30;;;19.90;99.90;;;;;;4998589;28;20106;-93
2022/09/11 10:18:28;;;;;;;3.95;1.17;;;20.10;99.90;;;;;;4995577;28;20046;-91
2022/09/11 10:21:12;;;;;;;6.30;1.42;;;20.30;99.90;;;;;;4993964;28;20049;-92
2022/09/11 10:23:56;;;;;;;4.55;1.48;;;20.50;99.90;;;;;;4996192;28;20130;-89
2022/09/11 10:26:38;;;;;;;3.47;1.40;;;20.70;99.90;;;;;;4971420;28;20142;-87
2022/09/11 10:29:23;;;;;;;5.85;1.35;;;20.80;99.90;;;;;;4977410;28;20046;-86
2022/09/11 10:31:51;;;;;;;7.60;1.65;;;21.10;99.90;;;;;;4995768;28;20038;-87
2022/09/11 10:34:19;;;;;;;5.43;1.30;;;21.20;99.90;;;;;;4993283;28;20042;-84
2022/09/11 10:36:53;;;;;;;4.38;1.20;;;21.40;99.90;;;;;;4992461;28;20392;-86
2022/09/11 10:39:20;;;;;;;;;;;21.50;99.90;;;;;;4993096;28;20070;-85
2022/09/11 10:41:55;;;;;;;7.05;1.30;;;21.70;99.90;;;;;;4994286;28;19950;-86
2022/09/11 10:44:22;;;;;;;5.30;1.20;;;22.00;99.90;;;;;;4958277;28;20085;-85
2022/09/11 10:47:02;;;;;;;3.47;1.15;;;22.30;99.90;;;;;;4993906;28;20102;-86
2022/09/11 10:49:28;;;;;;;3.60;1.15;;;22.60;99.90;;;;;;4975103;28;20063;-86
2022/09/11 10:52:01;;;;;;;3.75;1.25;;;22.80;99.90;;;;;;4985592;28;20050;-86
2022/09/11 10:54:53;;;;;;;4.40;1.00;;;23.00;99.90;;;;;;4986422;28;20053;-87
2022/09/11 10:57:37;;;;;;;1.92;0.70;;;23.10;99.90;;;;;;4969994;28;20498;-85
2022/09/11 11:00:22;;;;;;;3.40;1.00;;;23.00;99.90;;;;;;4989308;28;20042;-86
2022/09/11 11:02:51;;;;;;;5.22;1.10;;;22.70;99.90;;;;;;4993134;28;20058;-86
2022/09/11 11:05:30;;;;;;;3.45;1.27;;;22.40;99.90;;;;;;4993128;28;20861;-86
2022/09/11 11:08:08;;;;;;;4.00;1.33;;;22.10;99.90;;;;;;4989160;28;20584;-82
2022/09/11 11:11:23;;;;;;;9.95;2.25;;;21.70;99.90;;;;;;4982966;28;20050;-83
2022/09/11 11:14:07;;;;;;;8.45;3.17;;;21.30;99.90;;;;;;4913230;29;20180;-85
2022/09/11 11:16:53;;;;;;;9.90;3.30;;;21.00;99.90;;;;;;4920126;29;20088;-86
2022/09/11 11:19:34;;;;;;;17.40;3.88;;;20.60;99.90;;;;;;4917332;29;20043;-86
2022/09/11 11:22:25;;;;;;;6.03;2.70;;;20.30;99.90;;;;;;4910719;29;20048;-86
2022/09/11 11:24:57;;;;;;;5.72;2.53;;;20.10;99.90;;;;;;4911484;29;20083;-86
2022/09/11 11:27:28;;;;;;;5.28;2.20;;;19.90;99.90;;;;;;4915384;29;20115;-86
2022/09/11 11:30:19;;;;;;;6.95;2.80;;;19.70;99.90;;;;;;4911358;29;20060;-86
2022/09/11 11:33:06;;;;;;;5.82;2.53;;;19.60;99.90;;;;;;4920468;29;20532;-87
2022/09/11 11:35:47;;;;;;;5.90;2.95;;;19.50;99.90;;;;;;4915205;29;20605;-88
2022/09/11 11:38:27;;;;;;;6.70;2.65;;;19.40;99.90;;;;;;4906351;29;20040;-87
2022/09/11 11:41:06;;;;;;;7.45;2.75;;;19.40;99.90;;;;;;4917528;29;20076;-87
2022/09/11 11:43:36;;;;;;;5.43;2.72;;;19.40;99.90;;;;;;4908214;29;20068;-87
2022/09/11 11:46:40;;;;;;;5.55;2.90;;;19.30;99.90;;;;;;4912013;29;20417;-87
2022/09/11 11:49:26;;;;;;;6.65;2.60;;;19.40;99.90;;;;;;4923162;28;20065;-85
2022/09/11 11:52:02;;;;;;;8.77;3.20;;;19.40;99.90;;;;;;4970007;28;20062;-86
2022/09/11 11:54:45;;;;;;;5.60;3.40;;;19.40;99.90;;;;;;4964066;28;20096;-84
2022/09/11 11:57:17;;;;;;;5.32;3.35;;;19.40;99.90;;;;;;4987767;28;20042;-85
2022/09/11 12:00:03;;;;;;;6.35;3.40;;;19.50;99.90;;;;;;4966848;28;20046;-85
2022/09/11 12:02:59;;;;;;;9.07;3.85;;;19.50;99.90;;;;;;4985694;28;20042;-85
2022/09/11 12:05:32;;;;;;;6.65;4.32;;;19.60;99.90;;;;;;4985687;28;20420;-85
2022/09/11 12:07:59;;;;;;;6.60;3.93;;;19.60;99.90;;;;;;4983730;28;20072;-87
2022/09/11 12:10:39;;;;;;;6.38;3.78;;;19.70;99.90;;;;;;4968385;28;20053;-87
2022/09/11 12:13:11;;;;;;;6.75;3.92;;;19.80;99.90;;;;;;4970261;28;20121;-86
2022/09/11 12:15:38;;;;;;;6.65;4.28;;;19.90;99.90;;;;;;4983711;28;20041;-87
2022/09/11 12:18:23;;;;;;;9.40;4.30;;;19.90;99.90;;;;;;4990463;28;20427;-87
2022/09/11 12:20:50;;;;;;;5.93;3.83;;;19.90;99.90;;;;;;4986485;28;20034;-86
2022/09/11 12:23:34;;;;;;;5.88;4.20;;;19.80;99.90;;;;;;4988070;28;20398;-87
2022/09/11 12:26:08;;;;;;;7.68;4.20;;;19.70;99.90;;;;;;4986158;28;20050;-87
2022/09/11 12:28:36;;;;;;;6.38;4.25;;;19.70;99.90;;;;;;4987737;28;20045;-87
2022/09/11 12:31:10;;;;;;;7.05;3.90;;;19.70;99.90;;;;;;4968272;28;20117;-86
2022/09/11 12:33:43;;;;;;;6.32;3.53;;;19.60;99.90;;;;;;4987728;28;20050;-87
2022/09/11 12:36:37;;;;;;;5.50;3.60;;;19.60;99.90;;;;;;4988984;28;20050;-86
2022/09/11 12:39:28;;;;;;;8.10;3.72;;;19.50;99.90;;;;;;4983926;28;20058;-85
2022/09/11 12:42:21;;;;;;;5.13;3.90;;;19.50;99.90;;;;;;4952884;28;20060;-86
2022/09/11 12:44:47;;;;;;;6.70;3.80;;;19.60;99.90;;;;;;4980615;28;20494;-86
2022/09/11 12:47:35;;;;;;;6.85;3.58;;;19.80;99.90;;;;;;4986886;28;20096;-85
2022/09/11 12:50:21;;;;;;;5.50;3.00;;;19.90;99.90;;;;;;4984243;28;20058;-85
2022/09/11 12:52:53;;;;;;;4.97;2.70;;;20.20;99.90;;;;;;4969772;28;20052;-88
2022/09/11 12:55:39;;;;;;;7.07;2.42;;;20.40;99.90;;;;;;4987210;28;20038;-84
2022/09/11 12:58:29;;;;;;;8.20;2.25;;;20.60;99.90;;;;;;4963304;28;20458;-89
2022/09/11 13:01:13;;;;;;;6.53;2.30;;;20.80;99.90;;;;;;4984955;28;20042;-86